| Date | Time | Temp. (oF) | Dew Point (oF) | Rel. Hum. (%) | Press. (in.) | Wind Dir. | Wind Speed (mph) | Hourly Rainfall (in.) |
|
|---|---|---|---|---|---|---|---|---|---|
| 1 | 11/02 | 00:00 | 59 | 54 | 84 | 30.26 | SSW | 2 | 0.00 |
| 2 | 11/01 | 23:00 | 60 | 54 | 82 | 30.25 | SE | 2 | 0.00 |
| 3 | 11/01 | 22:00 | 61 | 54 | 79 | 30.26 | SE | 5 | 0.00 |
| 4 | 11/01 | 21:00 | 61 | 54 | 79 | 30.26 | S | 4 | 0.00 |
| 5 | 11/01 | 20:00 | 61 | 54 | 80 | 30.25 | SSE | 5 | 0.00 |
| 6 | 11/01 | 19:00 | 61 | 54 | 78 | 30.26 | S | 3 | 0.00 |
| 7 | 11/01 | 18:00 | 62 | 53 | 74 | 30.25 | SSE | 4 | 0.00 |
| 8 | 11/01 | 17:00 | 64 | 52 | 66 | 30.24 | SSE | 10 | 0.00 |
| 9 | 11/01 | 16:00 | 67 | 50 | 56 | 30.24 | SE | 5 | 0.00 |
| 10 | 11/01 | 15:00 | 71 | 46 | 42 | 30.23 | SSW | 4 | 0.00 |
| 11 | 11/01 | 14:00 | 72 | 45 | 39 | 30.24 | S | 5 | 0.00 |
| 12 | 11/01 | 13:00 | 69 | 47 | 46 | 30.27 | S | 4 | 0.00 |
| 13 | 11/01 | 12:00 | 68 | 51 | 55 | 30.30 | SSW | 2 | 0.00 |
| 14 | 11/01 | 11:00 | 63 | 52 | 69 | 30.35 | E | 6 | 0.00 |
| 15 | 11/01 | 10:00 | 57 | 51 | 82 | 30.36 | SSE | 3 | 0.00 |
| 16 | 11/01 | 09:00 | 51 | 50 | 100 | 30.37 | S | 4 | 0.00 |
| 17 | 11/01 | 08:00 | 43 | 42 | 100 | 30.37 | NNW | 0 | 0.00 |
| 18 | 11/01 | 07:00 | 41 | 41 | 100 | 30.37 | NNW | 0 | 0.00 |
| 19 | 11/01 | 06:00 | 42 | 41 | 98 | 30.36 | NW | 0 | 0.00 |
| 20 | 11/01 | 05:00 | 43 | 42 | 99 | 30.35 | WNW | 0 | 0.00 |
| 21 | 11/01 | 04:00 | 45 | 44 | 97 | 30.34 | SSW | 4 | 0.00 |
| 22 | 11/01 | 03:00 | 46 | 44 | 95 | 30.34 | NNW | 0 | 0.00 |
| 23 | 11/01 | 02:00 | 48 | 45 | 92 | 30.35 | SW | 0 | 0.00 |
| 24 | 11/01 | 01:00 | 50 | 46 | 89 | 30.35 | SW | 0 | 0.00 |